Terminal Aerodrome Forecast
Issued by NWS Aberdeen, SD

Home | Current Version | Previous Version | Text Only | Print | Product List | Glossary On
Versions: 1 2 3 4 5 6 7 8 9 10 11 12 13 14 15 16 17 18 19 20 21 22 23 24 25 26 27 28 29 30 31 32 33 34 35 36 37 38 39 40 41 42
572
FTUS43 KABR 110526
TAFABR
TAF
KABR 110526Z 1106/1206 06011KT 2SM -SN OVC012
      TEMPO 1106/1110 3/4SM -SN OVC015
     FM111000 04008KT 2SM -SN OVC015
     FM111100 03007KT P6SM OVC015
     FM111400 35006KT P6SM OVC025=

USA.gov is the U.S. government's official web portal to all federal, state and local government web resources and services.